sensor_id;sensor_type;location;lat;lon;timestamp;P1;durP1;ratioP1;P2;durP2;ratioP2
61702;SDS011;47622;47.726;3.298;2023-02-15T00:01:33;45.05;;;22.60;;
61702;SDS011;47622;47.726;3.298;2023-02-15T00:04:00;44.00;;;22.90;;
61702;SDS011;47622;47.726;3.298;2023-02-15T00:06:26;51.53;;;23.55;;
61702;SDS011;47622;47.726;3.298;2023-02-15T00:08:51;51.00;;;23.75;;
61702;SDS011;47622;47.726;3.298;2023-02-15T00:11:19;48.83;;;23.83;;
61702;SDS011;47622;47.726;3.298;2023-02-15T00:14:05;42.15;;;21.67;;
61702;SDS011;47622;47.726;3.298;2023-02-15T00:16:36;46.80;;;23.17;;
61702;SDS011;47622;47.726;3.298;2023-02-15T00:19:03;40.67;;;20.55;;
61702;SDS011;47622;47.726;3.298;2023-02-15T00:21:29;44.08;;;21.08;;
61702;SDS011;47622;47.726;3.298;2023-02-15T00:23:56;40.22;;;21.00;;
61702;SDS011;47622;47.726;3.298;2023-02-15T00:26:22;41.13;;;21.85;;
61702;SDS011;47622;47.726;3.298;2023-02-15T00:28:48;40.63;;;20.30;;
61702;SDS011;47622;47.726;3.298;2023-02-15T00:31:14;41.88;;;20.23;;
61702;SDS011;47622;47.726;3.298;2023-02-15T00:33:39;41.58;;;21.63;;
61702;SDS011;47622;47.726;3.298;2023-02-15T00:36:06;42.80;;;21.27;;
61702;SDS011;47622;47.726;3.298;2023-02-15T00:38:33;44.08;;;21.90;;
61702;SDS011;47622;47.726;3.298;2023-02-15T00:41:00;45.97;;;22.40;;
61702;SDS011;47622;47.726;3.298;2023-02-15T00:43:29;43.72;;;21.65;;
61702;SDS011;47622;47.726;3.298;2023-02-15T00:45:55;43.63;;;21.95;;
61702;SDS011;47622;47.726;3.298;2023-02-15T00:48:21;44.50;;;23.58;;
61702;SDS011;47622;47.726;3.298;2023-02-15T00:50:49;42.55;;;23.15;;
61702;SDS011;47622;47.726;3.298;2023-02-15T00:53:15;43.75;;;23.00;;
61702;SDS011;47622;47.726;3.298;2023-02-15T00:55:41;45.85;;;22.70;;
61702;SDS011;47622;47.726;3.298;2023-02-15T00:58:07;44.05;;;23.25;;
61702;SDS011;47622;47.726;3.298;2023-02-15T01:00:34;44.53;;;21.85;;
61702;SDS011;47622;47.726;3.298;2023-02-15T01:03:00;40.60;;;21.23;;
61702;SDS011;47622;47.726;3.298;2023-02-15T01:05:26;48.05;;;22.88;;
61702;SDS011;47622;47.726;3.298;2023-02-15T01:07:52;51.55;;;21.75;;
61702;SDS011;47622;47.726;3.298;2023-02-15T01:10:18;44.00;;;21.63;;
61702;SDS011;47622;47.726;3.298;2023-02-15T01:12:43;42.47;;;21.27;;
61702;SDS011;47622;47.726;3.298;2023-02-15T01:15:09;42.17;;;20.52;;
61702;SDS011;47622;47.726;3.298;2023-02-15T01:17:35;40.80;;;20.83;;
61702;SDS011;47622;47.726;3.298;2023-02-15T01:20:00;41.90;;;21.35;;
61702;SDS011;47622;47.726;3.298;2023-02-15T01:22:26;45.38;;;21.95;;
61702;SDS011;47622;47.726;3.298;2023-02-15T01:24:52;42.80;;;20.98;;
61702;SDS011;47622;47.726;3.298;2023-02-15T01:27:17;45.15;;;22.88;;
61702;SDS011;47622;47.726;3.298;2023-02-15T01:29:43;47.35;;;24.15;;
61702;SDS011;47622;47.726;3.298;2023-02-15T01:32:09;42.53;;;21.42;;
61702;SDS011;47622;47.726;3.298;2023-02-15T01:34:35;44.35;;;21.50;;
61702;SDS011;47622;47.726;3.298;2023-02-15T01:37:00;42.85;;;21.63;;
61702;SDS011;47622;47.726;3.298;2023-02-15T01:39:26;43.20;;;22.23;;
61702;SDS011;47622;47.726;3.298;2023-02-15T01:41:51;42.97;;;20.75;;
61702;SDS011;47622;47.726;3.298;2023-02-15T01:47:11;47.05;;;21.40;;
61702;SDS011;47622;47.726;3.298;2023-02-15T01:49:44;47.60;;;22.88;;
61702;SDS011;47622;47.726;3.298;2023-02-15T01:52:12;47.35;;;21.67;;
61702;SDS011;47622;47.726;3.298;2023-02-15T01:54:41;48.58;;;23.25;;
61702;SDS011;47622;47.726;3.298;2023-02-15T01:57:11;43.00;;;21.92;;
61702;SDS011;47622;47.726;3.298;2023-02-15T01:59:44;45.17;;;23.00;;
61702;SDS011;47622;47.726;3.298;2023-02-15T02:02:13;55.38;;;23.73;;
61702;SDS011;47622;47.726;3.298;2023-02-15T02:04:44;47.03;;;21.80;;
61702;SDS011;47622;47.726;3.298;2023-02-15T02:07:14;52.30;;;22.70;;
61702;SDS011;47622;47.726;3.298;2023-02-15T02:09:42;42.63;;;22.20;;
61702;SDS011;47622;47.726;3.298;2023-02-15T02:12:09;46.33;;;22.73;;
61702;SDS011;47622;47.726;3.298;2023-02-15T02:14:35;43.28;;;22.33;;
61702;SDS011;47622;47.726;3.298;2023-02-15T02:17:05;44.80;;;21.90;;
61702;SDS011;47622;47.726;3.298;2023-02-15T02:30:48;42.65;;;20.45;;
61702;SDS011;47622;47.726;3.298;2023-02-15T02:33:19;37.50;;;19.58;;
61702;SDS011;47622;47.726;3.298;2023-02-15T02:36:10;46.08;;;21.02;;
61702;SDS011;47622;47.726;3.298;2023-02-15T02:39:00;39.45;;;19.30;;
61702;SDS011;47622;47.726;3.298;2023-02-15T02:45:03;34.92;;;18.73;;
61702;SDS011;47622;47.726;3.298;2023-02-15T02:50:14;36.60;;;18.00;;
61702;SDS011;47622;47.726;3.298;2023-02-15T02:52:47;41.20;;;18.27;;
61702;SDS011;47622;47.726;3.298;2023-02-15T02:58:13;39.25;;;19.00;;
61702;SDS011;47622;47.726;3.298;2023-02-15T03:00:45;39.60;;;19.38;;
61702;SDS011;47622;47.726;3.298;2023-02-15T03:03:18;40.00;;;18.23;;
61702;SDS011;47622;47.726;3.298;2023-02-15T03:05:48;36.42;;;18.67;;
61702;SDS011;47622;47.726;3.298;2023-02-15T03:08:18;37.38;;;19.05;;
61702;SDS011;47622;47.726;3.298;2023-02-15T03:10:49;35.28;;;18.05;;
61702;SDS011;47622;47.726;3.298;2023-02-15T03:13:17;38.53;;;19.00;;
61702;SDS011;47622;47.726;3.298;2023-02-15T03:15:43;40.42;;;19.30;;
61702;SDS011;47622;47.726;3.298;2023-02-15T03:18:31;37.22;;;18.17;;
61702;SDS011;47622;47.726;3.298;2023-02-15T03:21:02;35.92;;;17.45;;
61702;SDS011;47622;47.726;3.298;2023-02-15T03:23:30;37.83;;;18.48;;
61702;SDS011;47622;47.726;3.298;2023-02-15T03:26:02;36.95;;;18.65;;
61702;SDS011;47622;47.726;3.298;2023-02-15T03:28:52;41.97;;;20.55;;
61702;SDS011;47622;47.726;3.298;2023-02-15T03:31:18;46.08;;;19.92;;
61702;SDS011;47622;47.726;3.298;2023-02-15T03:33:52;36.75;;;19.35;;
61702;SDS011;47622;47.726;3.298;2023-02-15T03:36:22;47.05;;;19.60;;
61702;SDS011;47622;47.726;3.298;2023-02-15T03:39:01;42.50;;;19.73;;
61702;SDS011;47622;47.726;3.298;2023-02-15T03:41:38;39.13;;;20.23;;
61702;SDS011;47622;47.726;3.298;2023-02-15T03:44:19;40.88;;;19.58;;
61702;SDS011;47622;47.726;3.298;2023-02-15T03:46:58;44.15;;;20.67;;
61702;SDS011;47622;47.726;3.298;2023-02-15T03:49:45;42.67;;;19.02;;
61702;SDS011;47622;47.726;3.298;2023-02-15T03:52:12;39.17;;;18.73;;
61702;SDS011;47622;47.726;3.298;2023-02-15T03:54:41;36.53;;;19.67;;
61702;SDS011;47622;47.726;3.298;2023-02-15T03:57:19;39.72;;;19.45;;
61702;SDS011;47622;47.726;3.298;2023-02-15T04:00:24;38.42;;;18.75;;
61702;SDS011;47622;47.726;3.298;2023-02-15T04:05:45;37.85;;;18.33;;
61702;SDS011;47622;47.726;3.298;2023-02-15T04:08:10;36.15;;;18.27;;
61702;SDS011;47622;47.726;3.298;2023-02-15T04:10:36;35.15;;;18.00;;
61702;SDS011;47622;47.726;3.298;2023-02-15T04:13:18;41.25;;;20.17;;
61702;SDS011;47622;47.726;3.298;2023-02-15T04:15:44;35.60;;;18.50;;
61702;SDS011;47622;47.726;3.298;2023-02-15T04:18:32;35.88;;;18.45;;
61702;SDS011;47622;47.726;3.298;2023-02-15T04:21:24;38.15;;;17.70;;
61702;SDS011;47622;47.726;3.298;2023-02-15T04:24:09;39.67;;;19.17;;
61702;SDS011;47622;47.726;3.298;2023-02-15T04:26:54;30.50;;;16.73;;
61702;SDS011;47622;47.726;3.298;2023-02-15T04:29:21;32.75;;;17.83;;
61702;SDS011;47622;47.726;3.298;2023-02-15T04:31:47;37.38;;;18.02;;
61702;SDS011;47622;47.726;3.298;2023-02-15T04:34:14;32.03;;;17.42;;
61702;SDS011;47622;47.726;3.298;2023-02-15T04:36:40;41.85;;;19.30;;
61702;SDS011;47622;47.726;3.298;2023-02-15T04:39:06;40.60;;;19.25;;
61702;SDS011;47622;47.726;3.298;2023-02-15T04:41:32;41.63;;;18.35;;
61702;SDS011;47622;47.726;3.298;2023-02-15T04:43:58;36.38;;;18.02;;
61702;SDS011;47622;47.726;3.298;2023-02-15T04:46:25;34.35;;;17.70;;
61702;SDS011;47622;47.726;3.298;2023-02-15T04:48:52;37.97;;;18.00;;
61702;SDS011;47622;47.726;3.298;2023-02-15T04:51:17;42.78;;;18.85;;
61702;SDS011;47622;47.726;3.298;2023-02-15T04:53:43;36.05;;;18.63;;
61702;SDS011;47622;47.726;3.298;2023-02-15T04:56:09;38.95;;;19.77;;
61702;SDS011;47622;47.726;3.298;2023-02-15T04:58:34;44.80;;;19.17;;
61702;SDS011;47622;47.726;3.298;2023-02-15T05:01:02;38.30;;;19.05;;
61702;SDS011;47622;47.726;3.298;2023-02-15T05:03:27;40.40;;;18.83;;
61702;SDS011;47622;47.726;3.298;2023-02-15T05:05:53;37.00;;;17.63;;
61702;SDS011;47622;47.726;3.298;2023-02-15T05:08:18;39.28;;;17.63;;
61702;SDS011;47622;47.726;3.298;2023-02-15T05:10:44;35.50;;;17.10;;
61702;SDS011;47622;47.726;3.298;2023-02-15T05:13:10;35.35;;;17.13;;
61702;SDS011;47622;47.726;3.298;2023-02-15T05:15:35;33.90;;;16.75;;
61702;SDS011;47622;47.726;3.298;2023-02-15T05:18:01;33.03;;;17.30;;
61702;SDS011;47622;47.726;3.298;2023-02-15T05:20:27;32.25;;;16.55;;
61702;SDS011;47622;47.726;3.298;2023-02-15T05:22:53;35.30;;;16.05;;
61702;SDS011;47622;47.726;3.298;2023-02-15T05:25:19;31.15;;;15.77;;
61702;SDS011;47622;47.726;3.298;2023-02-15T05:28:03;30.88;;;15.45;;
61702;SDS011;47622;47.726;3.298;2023-02-15T05:30:47;28.13;;;15.98;;
61702;SDS011;47622;47.726;3.298;2023-02-15T05:33:14;36.88;;;17.70;;
61702;SDS011;47622;47.726;3.298;2023-02-15T05:35:40;35.65;;;16.90;;
61702;SDS011;47622;47.726;3.298;2023-02-15T05:38:05;33.97;;;16.75;;
61702;SDS011;47622;47.726;3.298;2023-02-15T05:40:31;33.83;;;16.85;;
61702;SDS011;47622;47.726;3.298;2023-02-15T05:42:57;34.33;;;17.83;;
61702;SDS011;47622;47.726;3.298;2023-02-15T05:45:23;33.33;;;17.52;;
61702;SDS011;47622;47.726;3.298;2023-02-15T05:47:48;32.75;;;16.60;;
61702;SDS011;47622;47.726;3.298;2023-02-15T05:50:14;34.28;;;16.67;;
61702;SDS011;47622;47.726;3.298;2023-02-15T05:52:40;31.17;;;15.10;;
61702;SDS011;47622;47.726;3.298;2023-02-15T05:55:06;30.73;;;16.88;;
61702;SDS011;47622;47.726;3.298;2023-02-15T05:57:33;31.73;;;15.50;;
61702;SDS011;47622;47.726;3.298;2023-02-15T06:00:00;30.88;;;16.70;;
61702;SDS011;47622;47.726;3.298;2023-02-15T06:02:29;32.72;;;16.83;;
61702;SDS011;47622;47.726;3.298;2023-02-15T06:04:55;31.80;;;15.75;;
61702;SDS011;47622;47.726;3.298;2023-02-15T06:07:20;41.65;;;17.67;;
61702;SDS011;47622;47.726;3.298;2023-02-15T06:09:46;36.95;;;18.17;;
61702;SDS011;47622;47.726;3.298;2023-02-15T06:12:11;37.10;;;17.60;;
61702;SDS011;47622;47.726;3.298;2023-02-15T06:14:37;37.45;;;17.33;;
61702;SDS011;47622;47.726;3.298;2023-02-15T06:17:03;37.65;;;18.15;;
61702;SDS011;47622;47.726;3.298;2023-02-15T06:19:28;39.88;;;17.95;;
61702;SDS011;47622;47.726;3.298;2023-02-15T06:21:54;37.75;;;17.98;;
61702;SDS011;47622;47.726;3.298;2023-02-15T06:24:19;37.58;;;18.58;;
61702;SDS011;47622;47.726;3.298;2023-02-15T06:26:45;33.55;;;18.38;;
61702;SDS011;47622;47.726;3.298;2023-02-15T06:29:11;37.05;;;19.05;;
61702;SDS011;47622;47.726;3.298;2023-02-15T06:31:36;36.10;;;17.60;;
61702;SDS011;47622;47.726;3.298;2023-02-15T06:34:02;38.35;;;17.65;;
61702;SDS011;47622;47.726;3.298;2023-02-15T06:36:28;34.05;;;17.08;;
61702;SDS011;47622;47.726;3.298;2023-02-15T06:38:54;31.42;;;16.05;;
61702;SDS011;47622;47.726;3.298;2023-02-15T06:41:20;34.45;;;16.30;;
61702;SDS011;47622;47.726;3.298;2023-02-15T06:43:46;29.88;;;16.30;;
61702;SDS011;47622;47.726;3.298;2023-02-15T06:46:11;40.17;;;17.02;;
61702;SDS011;47622;47.726;3.298;2023-02-15T06:48:37;32.47;;;15.68;;
61702;SDS011;47622;47.726;3.298;2023-02-15T06:51:03;30.88;;;15.65;;
61702;SDS011;47622;47.726;3.298;2023-02-15T06:53:28;29.55;;;15.13;;
61702;SDS011;47622;47.726;3.298;2023-02-15T06:55:59;30.33;;;15.65;;
61702;SDS011;47622;47.726;3.298;2023-02-15T06:58:27;30.15;;;15.15;;
61702;SDS011;47622;47.726;3.298;2023-02-15T07:00:53;34.15;;;15.55;;
61702;SDS011;47622;47.726;3.298;2023-02-15T07:03:19;30.05;;;14.35;;
61702;SDS011;47622;47.726;3.298;2023-02-15T07:05:44;32.38;;;15.13;;
61702;SDS011;47622;47.726;3.298;2023-02-15T07:08:12;29.90;;;15.75;;
61702;SDS011;47622;47.726;3.298;2023-02-15T07:10:38;30.83;;;15.07;;
61702;SDS011;47622;47.726;3.298;2023-02-15T07:13:03;30.75;;;15.13;;
61702;SDS011;47622;47.726;3.298;2023-02-15T07:15:29;26.13;;;14.63;;
61702;SDS011;47622;47.726;3.298;2023-02-15T07:17:56;33.55;;;16.15;;
61702;SDS011;47622;47.726;3.298;2023-02-15T07:20:23;33.90;;;15.38;;
61702;SDS011;47622;47.726;3.298;2023-02-15T07:22:49;28.30;;;14.70;;
61702;SDS011;47622;47.726;3.298;2023-02-15T07:25:16;30.42;;;15.38;;
61702;SDS011;47622;47.726;3.298;2023-02-15T07:27:42;30.58;;;15.13;;
61702;SDS011;47622;47.726;3.298;2023-02-15T07:30:10;25.02;;;13.30;;
61702;SDS011;47622;47.726;3.298;2023-02-15T07:32:37;26.60;;;15.18;;
61702;SDS011;47622;47.726;3.298;2023-02-15T07:35:22;33.20;;;15.32;;
61702;SDS011;47622;47.726;3.298;2023-02-15T07:37:48;30.38;;;14.85;;
61702;SDS011;47622;47.726;3.298;2023-02-15T07:40:14;30.20;;;14.73;;
61702;SDS011;47622;47.726;3.298;2023-02-15T07:42:39;30.13;;;15.25;;
61702;SDS011;47622;47.726;3.298;2023-02-15T07:45:05;28.45;;;15.18;;
61702;SDS011;47622;47.726;3.298;2023-02-15T07:47:31;27.50;;;14.35;;
61702;SDS011;47622;47.726;3.298;2023-02-15T07:49:56;28.63;;;15.30;;
61702;SDS011;47622;47.726;3.298;2023-02-15T07:52:22;26.90;;;13.30;;
61702;SDS011;47622;47.726;3.298;2023-02-15T07:54:47;25.50;;;14.80;;
61702;SDS011;47622;47.726;3.298;2023-02-15T07:57:13;23.30;;;13.68;;
61702;SDS011;47622;47.726;3.298;2023-02-15T07:59:38;22.55;;;12.55;;
61702;SDS011;47622;47.726;3.298;2023-02-15T08:02:06;22.88;;;14.20;;
61702;SDS011;47622;47.726;3.298;2023-02-15T08:04:35;22.65;;;13.45;;
61702;SDS011;47622;47.726;3.298;2023-02-15T08:07:01;24.80;;;13.65;;
61702;SDS011;47622;47.726;3.298;2023-02-15T08:09:26;23.05;;;12.88;;
61702;SDS011;47622;47.726;3.298;2023-02-15T08:11:52;23.02;;;12.68;;
61702;SDS011;47622;47.726;3.298;2023-02-15T08:14:18;22.92;;;13.88;;
61702;SDS011;47622;47.726;3.298;2023-02-15T08:16:49;23.83;;;12.73;;
61702;SDS011;47622;47.726;3.298;2023-02-15T08:19:22;28.98;;;15.27;;
61702;SDS011;47622;47.726;3.298;2023-02-15T08:24:19;19.85;;;13.00;;
61702;SDS011;47622;47.726;3.298;2023-02-15T08:26:46;22.98;;;14.02;;
61702;SDS011;47622;47.726;3.298;2023-02-15T08:29:14;20.58;;;12.55;;
61702;SDS011;47622;47.726;3.298;2023-02-15T08:31:41;20.00;;;13.35;;
61702;SDS011;47622;47.726;3.298;2023-02-15T08:34:07;20.42;;;13.80;;
61702;SDS011;47622;47.726;3.298;2023-02-15T08:36:33;21.85;;;13.02;;
61702;SDS011;47622;47.726;3.298;2023-02-15T08:39:00;20.55;;;12.82;;
61702;SDS011;47622;47.726;3.298;2023-02-15T08:41:29;18.58;;;11.93;;
61702;SDS011;47622;47.726;3.298;2023-02-15T08:44:00;19.75;;;12.52;;
61702;SDS011;47622;47.726;3.298;2023-02-15T08:46:28;16.85;;;12.40;;
61702;SDS011;47622;47.726;3.298;2023-02-15T08:48:56;17.25;;;12.02;;
61702;SDS011;47622;47.726;3.298;2023-02-15T08:51:27;17.00;;;11.90;;
61702;SDS011;47622;47.726;3.298;2023-02-15T08:53:55;18.38;;;12.65;;
61702;SDS011;47622;47.726;3.298;2023-02-15T08:56:24;19.50;;;11.80;;
61702;SDS011;47622;47.726;3.298;2023-02-15T08:58:51;23.52;;;12.88;;
61702;SDS011;47622;47.726;3.298;2023-02-15T09:01:19;20.85;;;12.50;;
61702;SDS011;47622;47.726;3.298;2023-02-15T09:03:47;14.70;;;10.27;;
61702;SDS011;47622;47.726;3.298;2023-02-15T09:06:15;15.80;;;10.25;;
61702;SDS011;47622;47.726;3.298;2023-02-15T09:08:41;16.17;;;10.75;;
61702;SDS011;47622;47.726;3.298;2023-02-15T09:11:08;18.13;;;11.13;;
61702;SDS011;47622;47.726;3.298;2023-02-15T09:13:35;20.27;;;13.73;;
61702;SDS011;47622;47.726;3.298;2023-02-15T09:16:04;18.38;;;12.50;;
61702;SDS011;47622;47.726;3.298;2023-02-15T09:18:32;17.55;;;12.27;;
61702;SDS011;47622;47.726;3.298;2023-02-15T09:21:19;17.52;;;11.30;;
61702;SDS011;47622;47.726;3.298;2023-02-15T09:23:48;19.45;;;11.15;;
61702;SDS011;47622;47.726;3.298;2023-02-15T09:26:16;17.73;;;10.77;;
61702;SDS011;47622;47.726;3.298;2023-02-15T09:28:44;18.02;;;10.95;;
61702;SDS011;47622;47.726;3.298;2023-02-15T09:31:17;16.75;;;10.80;;
61702;SDS011;47622;47.726;3.298;2023-02-15T09:33:45;16.55;;;10.98;;
61702;SDS011;47622;47.726;3.298;2023-02-15T09:46:33;15.27;;;10.18;;
61702;SDS011;47622;47.726;3.298;2023-02-15T09:49:26;17.52;;;10.02;;
61702;SDS011;47622;47.726;3.298;2023-02-15T09:52:15;13.25;;;9.65;;
61702;SDS011;47622;47.726;3.298;2023-02-15T09:57:45;14.27;;;8.90;;
61702;SDS011;47622;47.726;3.298;2023-02-15T10:12:11;12.45;;;8.02;;
61702;SDS011;47622;47.726;3.298;2023-02-15T10:14:44;10.55;;;7.40;;
61702;SDS011;47622;47.726;3.298;2023-02-15T10:27:49;11.07;;;7.32;;
61702;SDS011;47622;47.726;3.298;2023-02-15T10:30:15;9.27;;;6.60;;
61702;SDS011;47622;47.726;3.298;2023-02-15T10:32:53;11.45;;;6.85;;
61702;SDS011;47622;47.726;3.298;2023-02-15T10:35:28;9.85;;;6.55;;
61702;SDS011;47622;47.726;3.298;2023-02-15T10:57:24;9.25;;;6.38;;
61702;SDS011;47622;47.726;3.298;2023-02-15T11:07:43;9.32;;;6.07;;
61702;SDS011;47622;47.726;3.298;2023-02-15T11:10:22;8.73;;;6.00;;
61702;SDS011;47622;47.726;3.298;2023-02-15T11:12:50;10.68;;;6.10;;
61702;SDS011;47622;47.726;3.298;2023-02-15T11:23:31;10.13;;;6.70;;
61702;SDS011;47622;47.726;3.298;2023-02-15T11:25:59;13.35;;;6.97;;
61702;SDS011;47622;47.726;3.298;2023-02-15T11:28:34;10.23;;;6.53;;
61702;SDS011;47622;47.726;3.298;2023-02-15T11:31:16;9.88;;;6.63;;
61702;SDS011;47622;47.726;3.298;2023-02-15T11:33:46;8.88;;;6.50;;
61702;SDS011;47622;47.726;3.298;2023-02-15T11:36:24;8.93;;;6.40;;
61702;SDS011;47622;47.726;3.298;2023-02-15T11:38:57;9.10;;;6.82;;
61702;SDS011;47622;47.726;3.298;2023-02-15T11:41:28;10.85;;;6.15;;
61702;SDS011;47622;47.726;3.298;2023-02-15T11:46:41;11.43;;;6.63;;
61702;SDS011;47622;47.726;3.298;2023-02-15T11:49:18;9.45;;;6.78;;
61702;SDS011;47622;47.726;3.298;2023-02-15T11:51:55;9.32;;;6.30;;
61702;SDS011;47622;47.726;3.298;2023-02-15T11:54:26;8.43;;;6.15;;
61702;SDS011;47622;47.726;3.298;2023-02-15T11:59:28;10.05;;;6.65;;
61702;SDS011;47622;47.726;3.298;2023-02-15T12:01:57;9.90;;;6.57;;
61702;SDS011;47622;47.726;3.298;2023-02-15T12:07:02;13.32;;;6.97;;
61702;SDS011;47622;47.726;3.298;2023-02-15T12:09:37;8.65;;;6.40;;
61702;SDS011;47622;47.726;3.298;2023-02-15T12:12:20;11.68;;;6.70;;
61702;SDS011;47622;47.726;3.298;2023-02-15T12:14:51;9.63;;;6.30;;
61702;SDS011;47622;47.726;3.298;2023-02-15T12:17:20;11.18;;;6.35;;
61702;SDS011;47622;47.726;3.298;2023-02-15T12:19:48;12.68;;;6.55;;
61702;SDS011;47622;47.726;3.298;2023-02-15T12:22:22;10.45;;;6.30;;
61702;SDS011;47622;47.726;3.298;2023-02-15T12:24:50;10.20;;;7.10;;
61702;SDS011;47622;47.726;3.298;2023-02-15T12:27:26;10.38;;;6.53;;
61702;SDS011;47622;47.726;3.298;2023-02-15T12:29:59;11.95;;;6.63;;
61702;SDS011;47622;47.726;3.298;2023-02-15T12:32:30;10.40;;;6.97;;
61702;SDS011;47622;47.726;3.298;2023-02-15T12:35:01;10.25;;;7.13;;
61702;SDS011;47622;47.726;3.298;2023-02-15T12:37:54;10.68;;;7.20;;
61702;SDS011;47622;47.726;3.298;2023-02-15T12:40:27;11.18;;;7.38;;
61702;SDS011;47622;47.726;3.298;2023-02-15T12:42:53;14.02;;;8.07;;
61702;SDS011;47622;47.726;3.298;2023-02-15T12:45:21;16.15;;;8.48;;
61702;SDS011;47622;47.726;3.298;2023-02-15T12:48:35;11.93;;;7.45;;
61702;SDS011;47622;47.726;3.298;2023-02-15T12:50:44;12.13;;;7.90;;
61702;SDS011;47622;47.726;3.298;2023-02-15T12:53:34;11.48;;;7.70;;
61702;SDS011;47622;47.726;3.298;2023-02-15T12:56:05;12.85;;;7.70;;
61702;SDS011;47622;47.726;3.298;2023-02-15T12:58:33;11.63;;;7.97;;
61702;SDS011;47622;47.726;3.298;2023-02-15T13:01:22;12.00;;;8.00;;
61702;SDS011;47622;47.726;3.298;2023-02-15T13:03:59;14.55;;;7.97;;
61702;SDS011;47622;47.726;3.298;2023-02-15T13:06:27;12.18;;;7.80;;
61702;SDS011;47622;47.726;3.298;2023-02-15T13:08:58;11.23;;;;;
61702;SDS011;47622;47.726;3.298;2023-02-15T13:11:32;12.82;;;7.60;;
61702;SDS011;47622;47.726;3.298;2023-02-15T13:16:56;9.75;;;6.78;;
61702;SDS011;47622;47.726;3.298;2023-02-15T13:19:34;14.95;;;7.07;;
61702;SDS011;47622;47.726;3.298;2023-02-15T13:22:13;10.35;;;6.40;;
61702;SDS011;47622;47.726;3.298;2023-02-15T13:27:24;12.10;;;6.88;;
61702;SDS011;47622;47.726;3.298;2023-02-15T13:29:59;10.00;;;7.13;;
61702;SDS011;47622;47.726;3.298;2023-02-15T13:32:30;11.80;;;7.40;;
61702;SDS011;47622;47.726;3.298;2023-02-15T13:48:34;11.65;;;6.80;;
61702;SDS011;47622;47.726;3.298;2023-02-15T13:51:14;13.18;;;6.90;;
61702;SDS011;47622;47.726;3.298;2023-02-15T14:07:56;8.73;;;6.05;;
61702;SDS011;47622;47.726;3.298;2023-02-15T14:24:58;8.48;;;6.03;;
61702;SDS011;47622;47.726;3.298;2023-02-15T14:36:01;9.27;;;6.30;;
61702;SDS011;47622;47.726;3.298;2023-02-15T14:38:50;8.88;;;6.05;;
61702;SDS011;47622;47.726;3.298;2023-02-15T14:47:17;12.60;;;7.30;;
61702;SDS011;47622;47.726;3.298;2023-02-15T14:49:48;13.18;;;7.70;;
61702;SDS011;47622;47.726;3.298;2023-02-15T14:52:13;13.82;;;6.82;;
61702;SDS011;47622;47.726;3.298;2023-02-15T15:02:56;14.10;;;7.70;;
61702;SDS011;47622;47.726;3.298;2023-02-15T15:21:09;12.32;;;6.45;;
61702;SDS011;47622;47.726;3.298;2023-02-15T15:23:40;11.18;;;7.00;;
61702;SDS011;47622;47.726;3.298;2023-02-15T15:28:53;9.57;;;6.38;;
61702;SDS011;47622;47.726;3.298;2023-02-15T15:36:53;10.07;;;6.70;;
61702;SDS011;47622;47.726;3.298;2023-02-15T15:51:03;11.10;;;6.93;;
61702;SDS011;47622;47.726;3.298;2023-02-15T15:53:38;10.25;;;6.65;;
61702;SDS011;47622;47.726;3.298;2023-02-15T15:56:10;12.57;;;7.63;;
61702;SDS011;47622;47.726;3.298;2023-02-15T15:58:41;10.77;;;6.82;;
61702;SDS011;47622;47.726;3.298;2023-02-15T16:01:10;10.40;;;6.88;;
61702;SDS011;47622;47.726;3.298;2023-02-15T16:03:47;10.93;;;6.38;;
61702;SDS011;47622;47.726;3.298;2023-02-15T16:06:25;11.77;;;7.30;;
61702;SDS011;47622;47.726;3.298;2023-02-15T16:08:52;9.98;;;6.28;;
61702;SDS011;47622;47.726;3.298;2023-02-15T16:11:21;12.98;;;6.93;;
61702;SDS011;47622;47.726;3.298;2023-02-15T16:13:49;10.27;;;6.53;;
61702;SDS011;47622;47.726;3.298;2023-02-15T16:16:20;10.70;;;6.57;;
61702;SDS011;47622;47.726;3.298;2023-02-15T16:18:47;10.50;;;6.70;;
61702;SDS011;47622;47.726;3.298;2023-02-15T16:21:17;12.57;;;7.18;;
61702;SDS011;47622;47.726;3.298;2023-02-15T16:23:50;11.43;;;6.85;;
61702;SDS011;47622;47.726;3.298;2023-02-15T16:29:13;11.13;;;6.88;;
61702;SDS011;47622;47.726;3.298;2023-02-15T16:31:43;14.95;;;7.72;;
61702;SDS011;47622;47.726;3.298;2023-02-15T16:34:23;12.05;;;7.43;;
61702;SDS011;47622;47.726;3.298;2023-02-15T16:36:49;13.05;;;7.97;;
61702;SDS011;47622;47.726;3.298;2023-02-15T16:39:19;13.50;;;8.15;;
61702;SDS011;47622;47.726;3.298;2023-02-15T16:41:45;14.52;;;8.05;;
61702;SDS011;47622;47.726;3.298;2023-02-15T16:44:17;12.18;;;8.00;;
61702;SDS011;47622;47.726;3.298;2023-02-15T16:46:49;14.73;;;7.65;;
61702;SDS011;47622;47.726;3.298;2023-02-15T16:51:53;11.43;;;6.97;;
61702;SDS011;47622;47.726;3.298;2023-02-15T16:54:27;11.43;;;7.22;;
61702;SDS011;47622;47.726;3.298;2023-02-15T16:56:54;14.15;;;7.53;;
61702;SDS011;47622;47.726;3.298;2023-02-15T17:07:41;16.45;;;11.15;;
61702;SDS011;47622;47.726;3.298;2023-02-15T17:12:54;14.60;;;10.00;;
61702;SDS011;47622;47.726;3.298;2023-02-15T17:15:32;16.52;;;10.05;;
61702;SDS011;47622;47.726;3.298;2023-02-15T17:18:09;18.08;;;10.52;;
61702;SDS011;47622;47.726;3.298;2023-02-15T17:20:40;14.32;;;9.38;;
61702;SDS011;47622;47.726;3.298;2023-02-15T17:26:02;15.98;;;10.10;;
61702;SDS011;47622;47.726;3.298;2023-02-15T17:29:29;13.82;;;9.05;;
61702;SDS011;47622;47.726;3.298;2023-02-15T17:31:56;14.30;;;8.10;;
61702;SDS011;47622;47.726;3.298;2023-02-15T17:37:25;16.45;;;10.18;;
61702;SDS011;47622;47.726;3.298;2023-02-15T17:39:56;20.90;;;12.07;;
61702;SDS011;47622;47.726;3.298;2023-02-15T17:42:22;40.45;;;21.15;;
61702;SDS011;47622;47.726;3.298;2023-02-15T17:44:48;16.25;;;8.98;;
61702;SDS011;47622;47.726;3.298;2023-02-15T17:47:15;13.60;;;8.20;;
61702;SDS011;47622;47.726;3.298;2023-02-15T17:49:43;14.68;;;9.20;;
61702;SDS011;47622;47.726;3.298;2023-02-15T17:52:11;15.48;;;8.90;;
61702;SDS011;47622;47.726;3.298;2023-02-15T17:54:39;13.98;;;8.93;;
61702;SDS011;47622;47.726;3.298;2023-02-15T17:57:23;13.32;;;8.30;;
61702;SDS011;47622;47.726;3.298;2023-02-15T17:59:51;16.05;;;9.40;;
61702;SDS011;47622;47.726;3.298;2023-02-15T18:02:35;13.18;;;8.68;;
61702;SDS011;47622;47.726;3.298;2023-02-15T18:05:20;19.65;;;9.70;;
61702;SDS011;47622;47.726;3.298;2023-02-15T18:08:07;15.00;;;9.93;;
61702;SDS011;47622;47.726;3.298;2023-02-15T18:10:54;21.05;;;11.93;;
61702;SDS011;47622;47.726;3.298;2023-02-15T18:13:38;20.33;;;10.32;;
61702;SDS011;47622;47.726;3.298;2023-02-15T18:16:03;20.08;;;10.73;;
61702;SDS011;47622;47.726;3.298;2023-02-15T18:18:29;22.20;;;12.15;;
61702;SDS011;47622;47.726;3.298;2023-02-15T18:20:55;21.80;;;11.95;;
61702;SDS011;47622;47.726;3.298;2023-02-15T18:23:20;20.13;;;10.98;;
61702;SDS011;47622;47.726;3.298;2023-02-15T18:25:46;21.60;;;11.57;;
61702;SDS011;47622;47.726;3.298;2023-02-15T18:28:11;20.00;;;12.13;;
61702;SDS011;47622;47.726;3.298;2023-02-15T18:30:38;19.42;;;11.90;;
61702;SDS011;47622;47.726;3.298;2023-02-15T18:33:14;24.80;;;12.48;;
61702;SDS011;47622;47.726;3.298;2023-02-15T18:35:53;22.88;;;12.27;;
61702;SDS011;47622;47.726;3.298;2023-02-15T18:38:19;18.33;;;11.68;;
61702;SDS011;47622;47.726;3.298;2023-02-15T18:40:46;25.40;;;12.52;;